KAYS/AYS METAR and TAF weather

Enter ICAO airport designator
Station Type Date Time Source
KAYS METAR 2020/02/21 15:15 UTC NOAA

KAYS 211515Z AUTO 04011G17KT 10SM OVC024 05/M02 A3041 RMK AO2 T00511021 TSNO


Station Type Date Time Source
KAYS Decoded METAR 2020/02/21 15:15 UTC NOAA

Waycross / Ware County, Ga, GA, United States (KAYS) 31-15N 082-24W 46M
Feb 21, 2020 - 10:15 AM EST / 2020.02.21 1515 UTC
Wind: from the NE (040 degrees) at 13 MPH (11 KT) gusting to 20 MPH (17 KT):0
Visibility: 10 mile(s):0
Sky conditions: overcast
Temperature: 41.2 F (5.1 C)
Dew Point: 28.2 F (-2.1 C)
Relative Humidity: 59%
Pressure (altimeter): 30.41 in. Hg (1029 hPa)
ob: KAYS 211515Z AUTO 04011G17KT 10SM OVC024 05/M02 A3041 RMK AO2 T00511021 TSNO
cycle: 15

Station Type Date Time Source
KAYS TAF UTC NOAA

Error!

Example: see airport list